Time;durP1;ratioP1;P1;durP2;ratioP2;P2;SDS_P1;SDS_P2;PMS_P1;PMS_P2;Temp;Humidity;BMP_temperature;BMP_pressure;BME280_temperature;BME280_humidity;BME280_pressure;Samples;Min_cycle;Max_cycle;Signal;HPM_P1;HPM_P2
2022/01/29 00:01:10;;;;;;;8.80;1.57;;;3.80;93.30;;;;;;4962127;28;20529;-70
2022/01/29 00:03:36;;;;;;;7.22;1.25;;;3.80;93.50;;;;;;4967260;28;20018;-70
2022/01/29 00:06:03;;;;;;;7.47;1.60;;;3.80;93.60;;;;;;4963139;28;20540;-69
2022/01/29 00:08:28;;;;;;;;;;;3.80;93.70;;;;;;4968806;28;20102;-70
2022/01/29 00:11:00;;;;;;;12.48;2.03;;;3.80;93.90;;;;;;4967116;28;19910;-70
2022/01/29 00:13:26;;;;;;;8.05;2.17;;;3.80;93.70;;;;;;4963270;28;20108;-70
2022/01/29 00:15:52;;;;;;;6.33;1.73;;;3.80;93.70;;;;;;4965289;28;20097;-70
2022/01/29 00:18:17;;;;;;;7.33;1.80;;;3.80;93.80;;;;;;4967481;28;20038;-70
2022/01/29 00:20:44;;;;;;;7.83;1.70;;;3.80;93.60;;;;;;4966029;28;20663;-69
2022/01/29 00:23:10;;;;;;;6.05;2.00;;;3.80;93.60;;;;;;4963970;28;20054;-69
2022/01/29 00:25:36;;;;;;;2.97;1.37;;;3.80;93.70;;;;;;4964730;28;20445;-70
2022/01/29 00:28:01;;;;;;;4.93;1.50;;;3.80;93.50;;;;;;4965786;28;20026;-70
2022/01/29 00:30:36;;;;;;;10.00;1.97;;;3.80;93.50;;;;;;4970450;28;20139;-70
2022/01/29 00:33:02;;;;;;;5.68;1.40;;;3.80;93.50;;;;;;4962465;28;20050;-70
2022/01/29 00:35:28;;;;;;;3.20;1.33;;;3.80;93.50;;;;;;4967822;28;20115;-70
2022/01/29 00:37:53;;;;;;;6.33;1.50;;;3.80;93.50;;;;;;4959551;28;20060;-70
2022/01/29 00:40:21;;;;;;;7.33;1.70;;;3.80;93.20;;;;;;4968394;28;20697;-70
2022/01/29 00:42:46;;;;;;;6.22;1.48;;;3.80;93.40;;;;;;4961610;28;20041;-70
2022/01/29 00:45:12;;;;;;;6.20;2.00;;;3.80;93.50;;;;;;4966362;28;20022;-69
2022/01/29 00:47:38;;;;;;;7.80;1.90;;;3.70;93.80;;;;;;4965781;28;20031;-69
2022/01/29 00:50:04;;;;;;;6.73;1.73;;;3.70;93.60;;;;;;4959954;28;20476;-69
2022/01/29 00:52:29;;;;;;;9.85;2.22;;;3.60;93.80;;;;;;4967263;28;20112;-70
2022/01/29 00:54:55;;;;;;;3.13;1.10;;;3.60;94.00;;;;;;4969321;28;20081;-70
2022/01/29 00:57:21;;;;;;;5.93;1.80;;;3.50;93.90;;;;;;4963049;28;20104;-70
2022/01/29 00:59:47;;;;;;;3.95;1.35;;;3.50;94.30;;;;;;4966216;28;20039;-69
2022/01/29 01:02:13;;;;;;;6.60;1.87;;;3.50;94.20;;;;;;4961461;28;20038;-69
2022/01/29 01:04:39;;;;;;;5.40;1.58;;;3.40;94.20;;;;;;4966055;28;20913;-69
2022/01/29 01:07:07;;;;;;;9.57;2.57;;;3.40;94.20;;;;;;4964117;28;20038;-70
2022/01/29 01:09:33;;;;;;;5.60;1.88;;;3.40;94.60;;;;;;4964157;28;20084;-71
2022/01/29 01:11:59;;;;;;;5.78;1.40;;;3.30;94.60;;;;;;4957501;28;20033;-70
2022/01/29 01:14:25;;;;;;;3.00;1.27;;;3.30;94.70;;;;;;4967660;28;20214;-70
2022/01/29 01:16:51;;;;;;;5.93;1.63;;;3.30;94.80;;;;;;4965312;28;20093;-69
2022/01/29 01:19:16;;;;;;;8.53;1.70;;;3.30;94.90;;;;;;4967916;28;20042;-70
2022/01/29 01:21:42;;;;;;;9.13;1.93;;;3.20;94.90;;;;;;4969641;28;20101;-69
2022/01/29 01:24:08;;;;;;;7.50;1.67;;;3.20;95.00;;;;;;4963402;28;20077;-70
2022/01/29 01:26:34;;;;;;;7.50;1.57;;;3.20;95.20;;;;;;4964938;28;20677;-72
2022/01/29 01:28:59;;;;;;;5.47;1.47;;;3.20;95.30;;;;;;4962164;28;20027;-69
2022/01/29 01:31:25;;;;;;;4.27;1.33;;;3.10;95.30;;;;;;4970562;28;20078;-70
2022/01/29 01:33:51;;;;;;;7.63;1.80;;;3.10;95.40;;;;;;4959574;28;20033;-70
2022/01/29 01:36:20;;;;;;;7.23;2.07;;;3.10;95.50;;;;;;4969386;28;20024;-70
2022/01/29 01:38:51;;;;;;;6.05;1.77;;;3.10;95.70;;;;;;4965953;28;20039;-70
2022/01/29 01:41:22;;;;;;;4.78;1.35;;;3.10;95.70;;;;;;4969464;28;20577;-69
2022/01/29 01:43:48;;;;;;;4.95;1.40;;;3.00;95.90;;;;;;4961595;28;20015;-69
2022/01/29 01:46:15;;;;;;;8.67;1.60;;;3.00;95.90;;;;;;4965821;28;20027;-69
2022/01/29 01:48:41;;;;;;;7.57;1.85;;;3.00;96.00;;;;;;4961373;28;20365;-70
2022/01/29 01:51:07;;;;;;;5.37;1.50;;;3.00;96.10;;;;;;4964102;28;20029;-69
2022/01/29 01:53:33;;;;;;;5.75;1.52;;;3.00;96.20;;;;;;4963562;28;20015;-69
2022/01/29 01:55:59;;;;;;;5.67;1.50;;;3.00;96.10;;;;;;4963780;28;20038;-69
2022/01/29 01:58:25;;;;;;;7.30;1.53;;;3.00;96.20;;;;;;4971693;28;20042;-70
2022/01/29 02:00:51;;;;;;;6.07;1.37;;;2.90;96.30;;;;;;4959116;28;20476;-70
2022/01/29 02:03:17;;;;;;;9.77;2.35;;;2.90;96.30;;;;;;4967171;28;20030;-70
2022/01/29 02:05:45;;;;;;;4.73;1.17;;;2.90;96.30;;;;;;4959523;28;20097;-70
2022/01/29 02:08:13;;;;;;;5.32;1.45;;;2.90;96.40;;;;;;4962829;28;20014;-70
2022/01/29 02:10:39;;;;;;;8.75;1.40;;;2.90;96.40;;;;;;4985001;28;20715;-70
2022/01/29 02:13:05;;;;;;;6.70;1.83;;;2.90;96.40;;;;;;4957610;28;20081;-69
2022/01/29 02:15:31;;;;;;;8.27;1.80;;;2.90;96.40;;;;;;4965917;28;20029;-70
2022/01/29 02:17:58;;;;;;;5.85;1.92;;;2.90;96.50;;;;;;4960585;28;20045;-69
2022/01/29 02:20:29;;;;;;;5.85;2.10;;;2.90;96.40;;;;;;4961932;28;20629;-70
2022/01/29 02:22:57;;;;;;;7.00;1.65;;;2.90;96.40;;;;;;4985520;28;20027;-70
2022/01/29 02:25:35;;;;;;;7.03;1.50;;;2.90;96.50;;;;;;4957346;28;20090;-70
2022/01/29 02:28:05;;;;;;;6.15;1.45;;;2.90;96.70;;;;;;4968385;28;20018;-69
2022/01/29 02:30:34;;;;;;;4.65;1.77;;;2.80;96.80;;;;;;4958006;28;20125;-69
2022/01/29 02:33:04;;;;;;;4.53;1.77;;;2.80;97.10;;;;;;4964769;28;20061;-70
2022/01/29 02:35:30;;;;;;;3.95;1.48;;;2.80;97.20;;;;;;4956341;28;20027;-70
2022/01/29 02:37:57;;;;;;;6.03;1.88;;;2.80;97.50;;;;;;4965851;28;20034;-69
2022/01/29 02:40:23;;;;;;;5.10;2.05;;;2.80;97.60;;;;;;4965223;28;20023;-70
2022/01/29 02:42:52;;;;;;;6.97;1.70;;;2.70;97.70;;;;;;4962477;28;20026;-69
2022/01/29 02:45:18;;;;;;;2.70;1.42;;;2.70;98.00;;;;;;4960246;28;20530;-70
2022/01/29 02:47:44;;;;;;;14.60;3.97;;;2.80;98.10;;;;;;4966251;28;20027;-69
2022/01/29 02:50:10;;;;;;;4.77;1.67;;;2.60;98.30;;;;;;4967962;28;20400;-70
2022/01/29 02:52:35;;;;;;;8.07;1.67;;;2.60;98.50;;;;;;4965332;28;20027;-69
2022/01/29 02:55:02;;;;;;;7.53;1.70;;;2.60;98.90;;;;;;4969033;28;20073;-70
2022/01/29 02:57:28;;;;;;;6.18;2.00;;;2.60;99.20;;;;;;4967641;28;20018;-70
2022/01/29 02:59:57;;;;;;;6.93;2.47;;;2.60;99.80;;;;;;4967634;28;20057;-70
2022/01/29 03:02:23;;;;;;;7.22;2.10;;;2.50;99.90;;;;;;4966597;28;20106;-70
2022/01/29 03:04:49;;;;;;;5.73;1.97;;;2.50;99.90;;;;;;4966936;28;20022;-70
2022/01/29 03:07:15;;;;;;;6.43;3.30;;;2.50;99.90;;;;;;4966731;28;20023;-70
2022/01/29 03:09:40;;;;;;;6.23;1.90;;;2.50;99.90;;;;;;4966535;28;20868;-69
2022/01/29 03:12:06;;;;;;;6.63;2.53;;;2.60;99.90;;;;;;4969135;28;20038;-70
2022/01/29 03:14:32;;;;;;;6.50;1.95;;;2.50;99.90;;;;;;4964544;28;20134;-69
2022/01/29 03:16:58;;;;;;;9.47;2.73;;;2.50;99.90;;;;;;4967424;28;20497;-69
2022/01/29 03:19:23;;;;;;;6.70;2.37;;;2.50;99.90;;;;;;4961615;28;20479;-70
2022/01/29 03:21:49;;;;;;;4.87;2.17;;;2.50;99.90;;;;;;4966655;28;20590;-70
2022/01/29 03:24:14;;;;;;;5.53;2.93;;;2.50;99.90;;;;;;4970499;28;20050;-69
2022/01/29 03:26:40;;;;;;;5.50;2.53;;;2.40;99.90;;;;;;4963524;28;20027;-70
2022/01/29 03:29:06;;;;;;;8.23;2.33;;;2.50;99.90;;;;;;4969630;28;20055;-70
2022/01/29 03:31:31;;;;;;;7.40;2.70;;;2.40;99.90;;;;;;4963769;28;20471;-69
2022/01/29 03:33:58;;;;;;;6.83;3.07;;;2.40;99.90;;;;;;4969394;28;20073;-70
2022/01/29 03:36:24;;;;;;;11.30;3.45;;;2.30;99.90;;;;;;4963821;28;20037;-69
2022/01/29 03:38:51;;;;;;;9.57;2.80;;;2.30;99.90;;;;;;4970292;28;20022;-70
2022/01/29 03:41:16;;;;;;;8.10;2.25;;;2.30;99.90;;;;;;4967700;28;20447;-69
2022/01/29 03:43:51;;;;;;;5.13;3.43;;;2.30;99.90;;;;;;4963192;28;20034;-69
2022/01/29 03:46:17;;;;;;;13.60;3.20;;;2.30;99.90;;;;;;4969850;28;20065;-69
2022/01/29 03:48:43;;;;;;;8.68;3.25;;;2.20;99.90;;;;;;4966668;28;20070;-70
2022/01/29 03:51:09;;;;;;;9.50;3.60;;;2.20;99.90;;;;;;4960458;28;21014;-70
2022/01/29 03:53:35;;;;;;;8.00;3.00;;;2.20;99.90;;;;;;4966107;28;20105;-70
2022/01/29 03:56:00;;;;;;;10.83;3.53;;;2.20;99.90;;;;;;4963218;28;20023;-70
2022/01/29 03:58:26;;;;;;;10.47;3.73;;;2.20;99.90;;;;;;4970820;28;20034;-69
2022/01/29 04:00:52;;;;;;;8.87;3.70;;;2.20;99.90;;;;;;4964937;28;20022;-70
2022/01/29 04:03:17;;;;;;;6.93;2.83;;;2.20;99.90;;;;;;4967742;28;21411;-70
2022/01/29 04:05:43;;;;;;;10.63;3.67;;;2.10;99.90;;;;;;4960767;28;20022;-70
2022/01/29 04:08:17;;;;;;;9.17;4.30;;;2.20;99.90;;;;;;4963954;28;20557;-70
2022/01/29 04:10:43;;;;;;;9.73;3.30;;;2.10;99.90;;;;;;4964993;28;20023;-70
2022/01/29 04:13:11;;;;;;;8.85;3.92;;;2.20;99.90;;;;;;4963945;28;20038;-69
2022/01/29 04:15:37;;;;;;;13.77;3.95;;;2.10;99.90;;;;;;4967834;28;20061;-70
2022/01/29 04:18:04;;;;;;;10.50;4.07;;;2.10;99.90;;;;;;4961839;28;20097;-69
2022/01/29 04:20:30;;;;;;;11.02;3.90;;;2.10;99.90;;;;;;4964565;28;20092;-70
2022/01/29 04:22:55;;;;;;;9.63;3.87;;;2.10;99.90;;;;;;4966524;28;20640;-69
2022/01/29 04:25:23;;;;;;;10.50;4.93;;;2.20;99.90;;;;;;4967020;28;20076;-69
2022/01/29 04:27:49;;;;;;;8.20;3.67;;;2.10;99.90;;;;;;4963858;28;20077;-69
2022/01/29 04:30:27;;;;;;;11.63;4.47;;;2.10;99.90;;;;;;4965509;28;20420;-70
2022/01/29 04:35:20;;;;;;;10.15;4.28;;;2.10;99.90;;;;;;4967526;28;20073;-71
2022/01/29 04:37:46;;;;;;;13.23;4.97;;;2.10;99.90;;;;;;4967663;28;20035;-69
2022/01/29 04:40:13;;;;;;;11.88;4.45;;;2.10;99.90;;;;;;4965944;28;20072;-69
2022/01/29 04:42:38;;;;;;;13.00;4.90;;;2.10;99.90;;;;;;4966613;28;20026;-69
2022/01/29 04:45:05;;;;;;;10.43;4.93;;;2.10;99.90;;;;;;4959564;28;20254;-69
2022/01/29 04:47:30;;;;;;;15.40;4.55;;;2.10;99.90;;;;;;4959748;28;20022;-69
2022/01/29 04:49:56;;;;;;;9.30;4.37;;;2.10;99.90;;;;;;4964531;28;20957;-69
2022/01/29 04:52:22;;;;;;;9.57;4.57;;;2.10;99.90;;;;;;4966916;28;20581;-69
2022/01/29 04:54:47;;;;;;;10.30;4.77;;;2.10;99.90;;;;;;4970942;28;20022;-69
2022/01/29 04:57:13;;;;;;;13.00;5.33;;;2.10;99.90;;;;;;4958023;28;20997;-69
2022/01/29 04:59:39;;;;;;;9.27;3.97;;;2.10;99.90;;;;;;4965656;28;20902;-69
2022/01/29 05:02:04;;;;;;;17.83;6.37;;;2.10;99.90;;;;;;4956136;28;20026;-69
2022/01/29 05:04:30;;;;;;;11.80;5.10;;;2.10;99.90;;;;;;4962009;28;20045;-69
2022/01/29 05:06:55;;;;;;;11.27;4.70;;;2.10;99.90;;;;;;4961737;28;20145;-69
2022/01/29 05:09:21;;;;;;;11.10;5.00;;;2.10;99.90;;;;;;4966067;28;20022;-69
2022/01/29 05:11:50;;;;;;;10.63;4.87;;;2.10;99.90;;;;;;4962403;28;20045;-69
2022/01/29 05:14:31;;;;;;;13.40;4.80;;;2.10;99.90;;;;;;4969038;28;20038;-69
2022/01/29 05:27:49;;;;;;;9.73;5.57;;;2.10;99.90;;;;;;4966194;28;20126;-69
2022/01/29 05:30:16;;;;;;;13.13;4.93;;;2.10;99.90;;;;;;4964290;28;20041;-69
2022/01/29 05:32:42;;;;;;;18.17;5.20;;;2.10;99.90;;;;;;4963614;28;20169;-70
2022/01/29 05:35:08;;;;;;;9.02;4.65;;;2.10;99.90;;;;;;4964282;28;20037;-69
2022/01/29 05:37:34;;;;;;;14.43;5.65;;;2.10;99.90;;;;;;4967033;28;20042;-69
2022/01/29 05:40:00;;;;;;;12.23;4.90;;;2.10;99.90;;;;;;4962236;28;20034;-70
2022/01/29 05:42:25;;;;;;;14.07;5.37;;;2.10;99.90;;;;;;4967858;28;20018;-70
2022/01/29 05:44:51;;;;;;;14.63;6.23;;;2.20;99.90;;;;;;4970712;28;20093;-69
2022/01/29 05:47:17;;;;;;;12.97;5.53;;;2.20;99.90;;;;;;4960180;28;20052;-69
2022/01/29 05:49:43;;;;;;;12.20;5.53;;;2.20;99.90;;;;;;4964573;28;20137;-69
2022/01/29 05:52:09;;;;;;;13.90;5.75;;;2.20;99.90;;;;;;4963886;28;20488;-69
2022/01/29 05:54:35;;;;;;;10.90;6.10;;;2.30;99.90;;;;;;4967665;28;20046;-69
2022/01/29 05:57:00;;;;;;;11.23;5.67;;;2.30;99.90;;;;;;4963843;28;20037;-70
2022/01/29 05:59:26;;;;;;;11.47;5.87;;;2.30;99.90;;;;;;4972511;28;21462;-68
2022/01/29 06:01:51;;;;;;;10.67;6.37;;;2.30;99.90;;;;;;4965384;28;20042;-69
2022/01/29 06:04:17;;;;;;;14.57;6.60;;;2.40;99.90;;;;;;4962709;28;20119;-69
2022/01/29 06:06:43;;;;;;;12.70;5.70;;;2.40;99.90;;;;;;4967488;28;20069;-70
2022/01/29 06:09:08;;;;;;;12.03;6.70;;;2.40;99.90;;;;;;4963441;28;20109;-69
2022/01/29 06:11:35;;;;;;;13.23;6.07;;;2.40;99.90;;;;;;4968778;28;20023;-69
2022/01/29 06:14:01;;;;;;;19.70;8.48;;;2.40;99.90;;;;;;4962305;28;20038;-69
2022/01/29 06:16:27;;;;;;;16.17;6.33;;;2.40;99.90;;;;;;4966566;28;20491;-69
2022/01/29 06:18:52;;;;;;;15.17;6.47;;;2.40;99.90;;;;;;4968024;28;20022;-69
2022/01/29 06:21:18;;;;;;;15.70;7.10;;;2.40;99.90;;;;;;4968008;28;20026;-69
2022/01/29 06:23:44;;;;;;;12.67;6.03;;;2.50;99.90;;;;;;4968978;28;20522;-69
2022/01/29 06:26:13;;;;;;;13.37;6.57;;;2.50;99.90;;;;;;4960246;28;20484;-69
2022/01/29 06:28:40;;;;;;;11.35;6.68;;;2.50;99.90;;;;;;4968455;28;20289;-71
2022/01/29 06:31:06;;;;;;;12.48;6.28;;;2.50;99.90;;;;;;4967995;28;20110;-69
2022/01/29 06:33:32;;;;;;;14.85;6.55;;;2.50;99.90;;;;;;4964024;28;20030;-69
2022/01/29 06:35:58;;;;;;;14.27;6.53;;;2.50;99.90;;;;;;4966518;28;20034;-69
2022/01/29 06:38:24;;;;;;;15.27;7.07;;;2.60;99.90;;;;;;4964932;28;20344;-69
2022/01/29 06:40:50;;;;;;;13.40;6.70;;;2.60;99.90;;;;;;4970494;28;20574;-69
2022/01/29 06:43:17;;;;;;;14.00;6.88;;;2.60;99.90;;;;;;4964455;28;20030;-70
2022/01/29 06:45:44;;;;;;;16.40;7.00;;;2.80;99.90;;;;;;4971618;28;20477;-69
2022/01/29 06:48:10;;;;;;;12.82;5.80;;;3.00;99.90;;;;;;4965011;28;20039;-70
2022/01/29 06:50:37;;;;;;;11.30;6.43;;;3.30;99.90;;;;;;4971160;28;20015;-70
2022/01/29 06:53:04;;;;;;;12.32;6.30;;;3.50;99.90;;;;;;4964709;28;20464;-69
2022/01/29 06:55:30;;;;;;;11.98;5.50;;;3.70;99.90;;;;;;4966461;28;20612;-70
2022/01/29 06:57:56;;;;;;;13.93;5.57;;;4.10;99.90;;;;;;4966509;28;20101;-71
2022/01/29 07:00:21;;;;;;;14.20;7.30;;;4.60;99.90;;;;;;4964714;28;22167;-70
2022/01/29 07:02:47;;;;;;;12.50;5.20;;;5.00;99.90;;;;;;4991930;28;20134;-68
2022/01/29 07:05:13;;;;;;;15.95;5.50;;;5.40;99.90;;;;;;4963180;28;20125;-69
2022/01/29 07:07:39;;;;;;;10.73;5.70;;;5.90;99.90;;;;;;4967262;28;20085;-69
2022/01/29 07:10:07;;;;;;;11.30;5.30;;;6.30;98.50;;;;;;4961321;28;20022;-69
2022/01/29 07:12:33;;;;;;;9.80;4.95;;;6.70;96.60;;;;;;4968284;28;20026;-69
2022/01/29 07:14:59;;;;;;;9.02;5.38;;;7.10;96.20;;;;;;4964341;28;20057;-69
2022/01/29 07:17:24;;;;;;;8.80;4.63;;;7.60;94.20;;;;;;4963153;28;20114;-68
2022/01/29 07:19:52;;;;;;;10.17;5.77;;;7.60;93.00;;;;;;4965711;28;20042;-69
2022/01/29 07:22:19;;;;;;;10.45;5.32;;;7.30;93.30;;;;;;4966266;28;20113;-68
2022/01/29 07:24:46;;;;;;;10.93;5.32;;;6.90;94.10;;;;;;4964737;28;20052;-69
2022/01/29 07:27:13;;;;;;;18.73;5.03;;;6.50;95.50;;;;;;4960792;28;20034;-72
2022/01/29 07:29:39;;;;;;;10.88;6.18;;;6.20;96.50;;;;;;4964520;28;20027;-70
2022/01/29 07:32:05;;;;;;;8.40;5.07;;;5.90;97.40;;;;;;4971036;28;20038;-72
2022/01/29 07:34:31;;;;;;;11.35;4.72;;;5.80;97.70;;;;;;4967438;28;20031;-69
2022/01/29 07:36:57;;;;;;;13.80;5.70;;;5.60;98.20;;;;;;4969041;28;20035;-69
2022/01/29 07:39:25;;;;;;;10.02;5.85;;;5.50;98.40;;;;;;4961054;28;20027;-70
2022/01/29 07:41:51;;;;;;;11.52;6.07;;;5.30;98.70;;;;;;4969754;28;20077;-69
2022/01/29 07:44:17;;;;;;;11.60;5.65;;;5.20;99.10;;;;;;4958537;28;20027;-70
2022/01/29 07:46:43;;;;;;;7.85;4.85;;;5.00;99.60;;;;;;4964448;28;20397;-69
2022/01/29 07:49:10;;;;;;;11.27;5.30;;;4.90;99.90;;;;;;4961695;28;20077;-69
2022/01/29 07:51:37;;;;;;;7.90;5.00;;;4.70;99.90;;;;;;4967365;28;20062;-69
2022/01/29 07:54:03;;;;;;;9.30;5.18;;;4.60;99.90;;;;;;4965970;28;20023;-69
2022/01/29 07:56:29;;;;;;;14.95;6.57;;;4.50;99.90;;;;;;4967598;28;20042;-68
2022/01/29 07:58:55;;;;;;;12.47;5.63;;;4.50;99.90;;;;;;4965048;28;20027;-69
2022/01/29 08:01:21;;;;;;;14.00;5.63;;;4.50;99.90;;;;;;4965453;28;20030;-70
2022/01/29 08:03:48;;;;;;;8.33;4.90;;;4.40;99.90;;;;;;4968178;28;20062;-70
2022/01/29 08:06:15;;;;;;;12.02;5.03;;;4.40;99.90;;;;;;4962181;28;20030;-71
2022/01/29 08:08:40;;;;;;;;;;;4.40;99.90;;;;;;4972294;28;20037;-70
2022/01/29 08:11:08;;;;;;;8.63;4.93;;;4.40;99.90;;;;;;4965648;28;20254;-70
2022/01/29 08:13:34;;;;;;;8.38;4.75;;;4.40;99.90;;;;;;4968719;28;20030;-70
2022/01/29 08:15:59;;;;;;;9.65;5.10;;;4.40;99.90;;;;;;4968058;28;20561;-69
2022/01/29 08:18:25;;;;;;;8.67;4.73;;;4.50;99.90;;;;;;4956326;28;20038;-71
2022/01/29 08:20:51;;;;;;;9.10;4.83;;;4.50;99.90;;;;;;4963197;28;20117;-70
2022/01/29 08:23:17;;;;;;;8.40;4.57;;;4.50;99.90;;;;;;4961860;28;20058;-70
2022/01/29 08:25:42;;;;;;;5.77;4.13;;;4.60;99.90;;;;;;4968085;28;20091;-71
2022/01/29 08:28:08;;;;;;;8.50;3.93;;;4.60;99.90;;;;;;4965074;28;20057;-69
2022/01/29 08:30:34;;;;;;;7.67;4.67;;;4.70;99.90;;;;;;4967185;28;20466;-72
2022/01/29 08:33:00;;;;;;;9.27;4.30;;;4.90;99.70;;;;;;4971778;28;20034;-69
2022/01/29 08:35:26;;;;;;;9.17;4.07;;;4.90;99.30;;;;;;4963099;28;20880;-70
2022/01/29 08:37:54;;;;;;;8.00;4.47;;;5.00;98.80;;;;;;4965154;28;20392;-69
2022/01/29 08:40:20;;;;;;;6.68;4.03;;;5.00;98.70;;;;;;4964784;28;20097;-70
2022/01/29 08:42:46;;;;;;;7.53;4.43;;;5.10;98.50;;;;;;4967113;28;20023;-70
2022/01/29 08:45:13;;;;;;;5.60;3.72;;;5.20;98.40;;;;;;4959882;28;20391;-70
2022/01/29 08:47:39;;;;;;;6.25;3.80;;;5.30;98.10;;;;;;4968103;28;20026;-70
2022/01/29 08:50:06;;;;;;;;;;;5.40;97.80;;;;;;4967041;28;20027;-71
2022/01/29 08:52:32;;;;;;;8.25;3.92;;;5.40;97.60;;;;;;4963504;28;19914;-69
2022/01/29 08:54:58;;;;;;;6.97;4.20;;;5.40;97.80;;;;;;4961316;28;20035;-69
2022/01/29 08:57:24;;;;;;;6.77;3.63;;;5.50;97.70;;;;;;4961733;28;20313;-70
2022/01/29 08:59:50;;;;;;;8.63;3.90;;;5.50;97.10;;;;;;4961761;28;20034;-70
2022/01/29 09:02:16;;;;;;;10.67;4.70;;;5.50;97.00;;;;;;4960612;28;20089;-70
2022/01/29 09:04:41;;;;;;;8.70;3.93;;;5.60;97.20;;;;;;4966164;28;20258;-71
2022/01/29 09:07:09;;;;;;;7.50;4.13;;;5.60;96.90;;;;;;4966667;28;20022;-69
2022/01/29 09:09:35;;;;;;;8.35;3.95;;;5.50;97.10;;;;;;4965237;28;20045;-69
2022/01/29 09:12:01;;;;;;;10.75;4.15;;;5.50;96.80;;;;;;4957342;28;20026;-69
2022/01/29 09:14:27;;;;;;;8.73;4.03;;;5.50;97.10;;;;;;4957718;28;20559;-69
2022/01/29 09:16:53;;;;;;;12.57;3.72;;;5.50;97.10;;;;;;4965808;28;20274;-70
2022/01/29 09:19:20;;;;;;;10.02;3.78;;;5.50;97.20;;;;;;4963925;28;20109;-69
2022/01/29 09:21:46;;;;;;;8.43;3.90;;;5.50;97.00;;;;;;4966986;28;20057;-70
2022/01/29 09:24:11;;;;;;;7.00;3.77;;;5.50;97.40;;;;;;4962107;28;20027;-70
2022/01/29 09:26:37;;;;;;;8.47;3.80;;;5.40;98.10;;;;;;4962902;28;20054;-70
2022/01/29 09:29:03;;;;;;;8.47;3.70;;;5.40;98.20;;;;;;4964598;28;20631;-70
2022/01/29 09:31:29;;;;;;;7.40;3.58;;;5.40;98.60;;;;;;4958652;28;20034;-71
2022/01/29 09:33:54;;;;;;;6.70;3.27;;;5.50;98.30;;;;;;4965101;28;20054;-70
2022/01/29 09:36:21;;;;;;;5.67;3.00;;;5.60;98.20;;;;;;4963156;28;20102;-70
2022/01/29 09:38:47;;;;;;;;;;;5.70;97.90;;;;;;4968055;28;20023;-70
2022/01/29 09:41:15;;;;;;;7.82;3.40;;;5.80;98.00;;;;;;4960625;28;19968;-71
2022/01/29 09:43:43;;;;;;;7.82;3.00;;;5.90;97.40;;;;;;4960083;28;20081;-70
2022/01/29 09:46:09;;;;;;;6.18;3.22;;;6.10;96.30;;;;;;4965844;28;20076;-69
2022/01/29 09:48:35;;;;;;;6.88;3.00;;;6.30;95.30;;;;;;4965651;28;20088;-69
2022/01/29 09:51:01;;;;;;;8.30;3.83;;;6.50;94.30;;;;;;4963423;28;20715;-69
2022/01/29 09:53:26;;;;;;;5.40;3.13;;;6.60;92.90;;;;;;4964737;28;20018;-69
2022/01/29 09:55:53;;;;;;;7.83;3.03;;;6.70;92.60;;;;;;4955642;28;20553;-70
2022/01/29 09:58:20;;;;;;;4.97;3.33;;;6.80;91.50;;;;;;4963043;28;20069;-69
2022/01/29 10:00:45;;;;;;;4.47;2.80;;;6.80;91.00;;;;;;4962428;28;20049;-70
2022/01/29 10:03:15;;;;;;;5.97;3.13;;;6.90;90.70;;;;;;4961986;28;20023;-73
2022/01/29 10:05:46;;;;;;;5.70;2.35;;;7.10;93.00;;;;;;4969843;28;20022;-73
2022/01/29 10:08:14;;;;;;;4.65;2.75;;;7.50;90.50;;;;;;4959942;28;20069;-71
2022/01/29 10:10:41;;;;;;;8.80;2.70;;;7.70;85.40;;;;;;4964797;28;20026;-69
2022/01/29 10:13:25;;;;;;;;;;;7.80;83.00;;;;;;4966033;28;20034;-69
2022/01/29 10:15:52;;;;;;;3.85;2.60;;;7.60;83.30;;;;;;4964583;28;20351;-69
2022/01/29 10:18:24;;;;;;;4.82;2.40;;;7.30;84.10;;;;;;4962588;28;20042;-70
2022/01/29 10:20:51;;;;;;;4.95;2.88;;;7.30;84.60;;;;;;4963705;28;20371;-70
2022/01/29 10:23:16;;;;;;;9.00;2.55;;;7.30;85.50;;;;;;4962471;28;20037;-70
2022/01/29 10:25:44;;;;;;;3.80;2.00;;;7.50;84.10;;;;;;4964994;28;20039;-70
2022/01/29 10:28:16;;;;;;;4.43;2.30;;;7.60;82.20;;;;;;4962274;28;20026;-70
2022/01/29 10:30:51;;;;;;;3.72;1.85;;;7.80;80.50;;;;;;4963422;28;20053;-70
2022/01/29 10:33:19;;;;;;;4.22;2.13;;;8.00;80.30;;;;;;4963530;28;20030;-70
2022/01/29 10:35:46;;;;;;;7.75;2.50;;;8.10;78.00;;;;;;4967238;28;20035;-69
2022/01/29 10:38:12;;;;;;;4.53;2.75;;;8.20;78.30;;;;;;4957047;28;20375;-70
2022/01/29 10:40:39;;;;;;;3.67;2.00;;;8.30;77.70;;;;;;4973111;28;20041;-70
2022/01/29 10:43:05;;;;;;;;;;;8.40;76.60;;;;;;4963703;28;20034;-70
2022/01/29 10:45:35;;;;;;;6.20;2.05;;;8.60;75.50;;;;;;4963681;28;19961;-69
2022/01/29 10:48:04;;;;;;;6.32;2.40;;;8.80;76.00;;;;;;4960135;28;20165;-69
2022/01/29 10:50:32;;;;;;;4.03;2.13;;;8.80;75.20;;;;;;4960730;28;20037;-69
2022/01/29 10:53:18;;;;;;;5.00;2.63;;;8.90;75.00;;;;;;4958594;28;20027;-70
2022/01/29 10:56:03;;;;;;;4.18;2.50;;;9.10;74.50;;;;;;4959000;28;20139;-69
2022/01/29 10:58:30;;;;;;;4.53;2.83;;;9.40;73.90;;;;;;4963802;28;20026;-69
2022/01/29 11:01:19;;;;;;;8.65;2.85;;;9.40;72.30;;;;;;4959959;28;20110;-69
2022/01/29 11:03:45;;;;;;;5.18;2.58;;;9.50;74.30;;;;;;4966920;28;20100;-69
2022/01/29 11:06:20;;;;;;;9.60;3.72;;;9.50;73.10;;;;;;4969316;28;20022;-69
2022/01/29 11:08:46;;;;;;;4.60;2.78;;;9.30;73.80;;;;;;4964946;28;20423;-71
2022/01/29 11:11:14;;;;;;;6.47;2.60;;;9.50;76.80;;;;;;4965486;28;20019;-70
2022/01/29 11:13:42;;;;;;;6.25;2.65;;;9.80;77.40;;;;;;4972050;28;20049;-69
2022/01/29 11:16:09;;;;;;;5.47;2.92;;;10.00;71.40;;;;;;4968764;28;20117;-70
2022/01/29 11:18:35;;;;;;;4.80;2.53;;;9.80;72.10;;;;;;4967681;28;20022;-70
2022/01/29 11:21:02;;;;;;;4.47;2.40;;;9.40;73.20;;;;;;4967164;28;20049;-69
2022/01/29 11:23:29;;;;;;;3.63;2.25;;;9.30;74.20;;;;;;4966045;28;20688;-70
2022/01/29 11:25:57;;;;;;;3.50;2.38;;;9.10;75.10;;;;;;4964130;28;20058;-70
2022/01/29 11:28:26;;;;;;;3.80;2.30;;;8.80;77.60;;;;;;4965876;28;20028;-70
2022/01/29 11:31:13;;;;;;;3.35;2.40;;;8.60;79.40;;;;;;4966921;28;20550;-70
2022/01/29 11:33:57;;;;;;;4.80;2.40;;;8.50;80.90;;;;;;4958223;28;20018;-70
2022/01/29 11:36:49;;;;;;;4.38;2.40;;;8.30;88.20;;;;;;4964732;28;20102;-70
2022/01/29 11:39:34;;;;;;;4.25;2.53;;;7.90;92.00;;;;;;4966434;28;20046;-72
2022/01/29 11:42:14;;;;;;;5.32;2.83;;;7.50;95.30;;;;;;4967248;28;20018;-70
2022/01/29 11:44:41;;;;;;;5.50;2.90;;;7.20;98.20;;;;;;4961952;28;20034;-70
2022/01/29 11:47:22;;;;;;;3.45;2.40;;;6.90;98.80;;;;;;4968249;28;20046;-70
2022/01/29 11:49:49;;;;;;;7.80;2.97;;;6.60;99.90;;;;;;4965254;28;20022;-78
2022/01/29 11:52:23;;;;;;;;;;;6.40;99.90;;;;;;4967618;28;20165;-72
2022/01/29 11:55:03;;;;;;;7.10;3.00;;;6.40;99.90;;;;;;4968266;28;19963;-72
2022/01/29 11:57:29;;;;;;;5.13;3.00;;;6.60;99.90;;;;;;4965076;28;20049;-72
2022/01/29 11:59:55;;;;;;;4.17;2.73;;;6.90;99.90;;;;;;4963432;28;21564;-69
2022/01/29 12:02:20;;;;;;;7.43;2.90;;;6.90;99.90;;;;;;4967210;28;20018;-69
2022/01/29 12:04:53;;;;;;;6.53;2.83;;;6.70;99.90;;;;;;4968431;28;20109;-69
2022/01/29 12:09:52;;;;;;;6.80;2.80;;;6.20;99.90;;;;;;4967695;28;20101;-69
2022/01/29 12:12:24;;;;;;;4.45;2.95;;;6.00;99.90;;;;;;4968437;28;20081;-69
2022/01/29 12:14:57;;;;;;;6.35;3.08;;;5.70;99.90;;;;;;4959719;28;20041;-69
2022/01/29 12:17:48;;;;;;;5.80;2.78;;;5.60;99.90;;;;;;4963896;28;20027;-69
2022/01/29 12:20:24;;;;;;;4.75;2.63;;;5.50;99.90;;;;;;4974092;28;20556;-69
2022/01/29 12:22:53;;;;;;;5.55;3.10;;;5.40;99.90;;;;;;4960828;28;20073;-69
2022/01/29 12:25:26;;;;;;;3.40;2.40;;;5.40;99.90;;;;;;4966150;28;20035;-69
2022/01/29 12:28:07;;;;;;;6.72;3.05;;;5.30;99.90;;;;;;4968678;28;20053;-70
2022/01/29 12:30:36;;;;;;;5.38;2.63;;;5.40;99.90;;;;;;4966176;28;20037;-69
2022/01/29 12:33:13;;;;;;;6.22;2.90;;;5.40;99.90;;;;;;4968672;28;20130;-68
2022/01/29 12:35:59;;;;;;;7.35;2.58;;;5.40;99.90;;;;;;4959383;28;20026;-68
2022/01/29 12:38:28;;;;;;;5.53;2.38;;;5.40;99.90;;;;;;4958344;28;20019;-69
2022/01/29 12:40:58;;;;;;;3.63;2.22;;;5.30;99.90;;;;;;4967521;28;20042;-69
2022/01/29 12:43:29;;;;;;;3.92;2.22;;;5.30;99.90;;;;;;4962452;28;20445;-69
2022/01/29 12:46:08;;;;;;;3.95;2.28;;;5.20;99.90;;;;;;4964022;28;20033;-69
2022/01/29 12:48:34;;;;;;;3.88;2.10;;;5.20;99.90;;;;;;4961709;28;20019;-69
2022/01/29 12:51:05;;;;;;;5.90;2.40;;;5.20;99.90;;;;;;4968977;28;20487;-69
2022/01/29 12:53:31;;;;;;;4.22;2.15;;;5.20;99.90;;;;;;4962205;28;20033;-69
2022/01/29 12:56:01;;;;;;;3.17;2.10;;;5.10;99.90;;;;;;4968963;28;20717;-69
2022/01/29 12:58:28;;;;;;;2.17;1.80;;;5.10;99.90;;;;;;4962032;28;20061;-70
2022/01/29 13:01:05;;;;;;;5.22;2.65;;;5.10;99.90;;;;;;4962583;28;20019;-69
2022/01/29 13:03:31;;;;;;;5.00;2.13;;;5.10;99.90;;;;;;4960724;28;20050;-68
2022/01/29 13:06:03;;;;;;;2.80;1.90;;;5.10;99.90;;;;;;4961489;28;20026;-68
2022/01/29 13:08:29;;;;;;;3.58;2.20;;;5.10;99.90;;;;;;4967785;28;20022;-69
2022/01/29 13:10:55;;;;;;;3.93;2.10;;;4.90;99.90;;;;;;4965850;28;20199;-69
2022/01/29 13:13:32;;;;;;;2.63;1.87;;;4.90;99.90;;;;;;4962721;28;20201;-68